Time;durP1;ratioP1;P1;durP2;ratioP2;P2;SDS_P1;SDS_P2;PMS_P1;PMS_P2;Temp;Humidity;BMP_temperature;BMP_pressure;BME280_temperature;BME280_humidity;BME280_pressure;Samples;Min_cycle;Max_cycle;Signal;HPM_P1;HPM_P2
2023/08/23 00:01:13;;;;;;;22.42;12.30;;;;;;;;;;5072431;28;20116;-57
2023/08/23 00:03:39;;;;;;;21.20;12.82;;;;;;;;;;5071279;28;20027;-57
2023/08/23 00:06:05;;;;;;;21.48;12.02;;;;;;;;;;5070839;28;20491;-55
2023/08/23 00:08:31;;;;;;;22.17;11.80;;;;;;;;;;5071074;28;20024;-57
2023/08/23 00:10:57;;;;;;;19.23;11.38;;;;;;;;;;5076632;28;20032;-56
2023/08/23 00:13:23;;;;;;;22.10;12.85;;;;;;;;;;5088537;28;20171;-58
2023/08/23 00:15:50;;;;;;;20.02;12.63;;;;;;;;;;5082493;28;20024;-58
2023/08/23 00:18:16;;;;;;;26.98;12.15;;;;;;;;;;5091241;28;20046;-58
2023/08/23 00:20:42;;;;;;;21.45;12.02;;;;;;;;;;5091111;28;20516;-58
2023/08/23 00:23:08;;;;;;;21.02;11.73;;;;;;;;;;5080494;28;20078;-55
2023/08/23 00:25:34;;;;;;;20.67;11.75;;;;;;;;;;5069703;28;20040;-58
2023/08/23 00:28:00;;;;;;;21.58;12.23;;;;;;;;;;5070776;28;20032;-57
2023/08/23 00:30:26;;;;;;;23.55;12.48;;;;;;;;;;5070848;28;20146;-58
2023/08/23 00:32:51;;;;;;;20.20;12.32;;;;;;;;;;5072025;28;20043;-58
2023/08/23 00:35:17;;;;;;;22.73;12.18;;;;;;;;;;5052516;28;20119;-58
2023/08/23 00:37:43;;;;;;;21.02;13.05;;;;;;;;;;5071818;28;20024;-58
2023/08/23 00:40:10;;;;;;;24.65;13.95;;;;;;;;;;5070586;28;20099;-58
2023/08/23 00:42:36;;;;;;;20.30;12.20;;;;;;;;;;5070803;28;20101;-57
2023/08/23 00:45:02;;;;;;;22.55;12.68;;;;;;;;;;5052442;28;20032;-59
2023/08/23 00:47:29;;;;;;;23.58;13.13;;;;;;;;;;5070745;28;20016;-58
2023/08/23 00:49:57;;;;;;;22.80;13.40;;;;;;;;;;5070495;28;20028;-58
2023/08/23 00:52:27;;;;;;;21.92;12.85;;;;;;;;;;5052499;28;20388;-58
2023/08/23 00:54:53;;;;;;;20.60;12.90;;;;;;;;;;5070317;28;20509;-58
2023/08/23 00:57:19;;;;;;;23.92;13.32;;;;;;;;;;5071636;28;20096;-58
2023/08/23 00:59:45;;;;;;;22.08;12.85;;;;;;;;;;5070419;28;20028;-58
2023/08/23 01:02:11;;;;;;;20.13;11.68;;;;;;;;;;5079527;28;20035;-57
2023/08/23 01:04:37;;;;;;;20.50;12.52;;;;;;;;;;5072191;28;20085;-58
2023/08/23 01:07:14;;;;;;;20.83;12.50;;;;;;;;;;5090648;28;20036;-58
2023/08/23 01:09:51;;;;;;;21.10;12.43;;;;;;;;;;5090642;28;20081;-56
2023/08/23 01:12:23;;;;;;;22.48;11.80;;;;;;;;;;5090822;28;20038;-57
2023/08/23 01:14:53;;;;;;;20.92;12.10;;;;;;;;;;5073029;28;20020;-57
2023/08/23 01:17:20;;;;;;;20.95;12.25;;;;;;;;;;5090640;28;20056;-57
2023/08/23 01:19:47;;;;;;;21.67;11.85;;;;;;;;;;5090566;28;20024;-58
2023/08/23 01:22:17;;;;;;;24.00;12.70;;;;;;;;;;5090608;28;20029;-58
2023/08/23 01:24:43;;;;;;;21.10;12.30;;;;;;;;;;5090366;28;20048;-58
2023/08/23 01:27:09;;;;;;;21.55;11.95;;;;;;;;;;5090535;28;20032;-58
2023/08/23 01:29:35;;;;;;;25.90;12.18;;;;;;;;;;5090435;28;20024;-58
2023/08/23 01:32:06;;;;;;;24.95;12.30;;;;;;;;;;5088017;28;20024;-57
2023/08/23 01:34:34;;;;;;;22.40;13.05;;;;;;;;;;5070026;28;20039;-58
2023/08/23 01:37:02;;;;;;;22.33;13.18;;;;;;;;;;5071958;28;20365;-58
2023/08/23 01:39:29;;;;;;;23.40;14.20;;;;;;;;;;5076074;28;20119;-58
2023/08/23 01:41:55;;;;;;;20.98;13.75;;;;;;;;;;5094242;28;20054;-57
2023/08/23 01:44:21;;;;;;;30.63;15.05;;;;;;;;;;5093881;28;20107;-58
2023/08/23 01:46:47;;;;;;;25.05;14.15;;;;;;;;;;5094137;28;20103;-57
2023/08/23 01:49:13;;;;;;;25.00;14.82;;;;;;;;;;5093996;28;20570;-56
2023/08/23 01:51:39;;;;;;;26.20;13.88;;;;;;;;;;5094016;28;20032;-58
2023/08/23 01:54:05;;;;;;;23.58;15.18;;;;;;;;;;5092096;28;20357;-59
2023/08/23 01:56:31;;;;;;;22.33;15.18;;;;;;;;;;5075585;28;20115;-58
2023/08/23 01:58:57;;;;;;;24.63;15.85;;;;;;;;;;5093718;28;20543;-59
2023/08/23 02:01:23;;;;;;;24.65;14.73;;;;;;;;;;5093937;28;20103;-59
2023/08/23 02:03:49;;;;;;;28.98;16.60;;;;;;;;;;5093909;28;20544;-59
2023/08/23 02:06:15;;;;;;;25.05;15.68;;;;;;;;;;5075446;28;20122;-58
2023/08/23 02:08:41;;;;;;;24.17;15.57;;;;;;;;;;5093663;28;20077;-58
2023/08/23 02:11:07;;;;;;;24.23;15.82;;;;;;;;;;5075491;28;20055;-60
2023/08/23 02:13:33;;;;;;;22.23;14.38;;;;;;;;;;5093625;28;20449;-57
2023/08/23 02:15:59;;;;;;;24.58;15.18;;;;;;;;;;5093472;28;20065;-57
2023/08/23 02:18:25;;;;;;;21.60;13.85;;;;;;;;;;5093475;28;20523;-57
2023/08/23 02:20:55;;;;;;;31.95;14.73;;;;;;;;;;5093615;28;20028;-58
2023/08/23 02:23:21;;;;;;;24.05;13.55;;;;;;;;;;5085213;28;20553;-55
2023/08/23 02:25:47;;;;;;;22.40;14.15;;;;;;;;;;5073048;28;20036;-58
2023/08/23 02:28:13;;;;;;;23.45;14.82;;;;;;;;;;5055160;28;20020;-58
2023/08/23 02:30:39;;;;;;;23.52;14.05;;;;;;;;;;5072999;28;20128;-56
2023/08/23 02:33:05;;;;;;;24.52;14.07;;;;;;;;;;5072884;28;20031;-58
2023/08/23 02:35:31;;;;;;;22.90;13.75;;;;;;;;;;5072750;28;20033;-57
2023/08/23 02:37:57;;;;;;;23.02;14.27;;;;;;;;;;5072726;28;20456;-56
2023/08/23 02:40:23;;;;;;;20.98;12.52;;;;;;;;;;5072966;28;20027;-58
2023/08/23 02:42:49;;;;;;;24.55;14.20;;;;;;;;;;5072858;28;20028;-58
2023/08/23 02:45:15;;;;;;;22.13;14.18;;;;;;;;;;5072610;28;20039;-57
2023/08/23 02:47:41;;;;;;;22.70;14.10;;;;;;;;;;5072019;28;20345;-57
2023/08/23 02:50:08;;;;;;;23.17;13.43;;;;;;;;;;5072417;28;20031;-58
2023/08/23 02:52:33;;;;;;;21.45;14.20;;;;;;;;;;5072512;28;20120;-58
2023/08/23 02:54:59;;;;;;;23.92;13.02;;;;;;;;;;5073391;28;20112;-56
2023/08/23 02:57:25;;;;;;;22.33;13.88;;;;;;;;;;5072427;28;20016;-57
2023/08/23 02:59:51;;;;;;;24.52;13.45;;;;;;;;;;5072336;28;20104;-58
2023/08/23 03:02:17;;;;;;;22.08;13.93;;;;;;;;;;5072711;28;20036;-56
2023/08/23 03:04:44;;;;;;;24.80;13.90;;;;;;;;;;5072222;28;20035;-56
2023/08/23 03:07:10;;;;;;;19.92;12.80;;;;;;;;;;5073739;28;20058;-55
2023/08/23 03:09:35;;;;;;;20.63;13.02;;;;;;;;;;5069500;28;20051;-57
2023/08/23 03:12:01;;;;;;;21.38;13.15;;;;;;;;;;5083884;28;20020;-59
2023/08/23 03:14:27;;;;;;;21.92;13.43;;;;;;;;;;5091701;28;20024;-58
2023/08/23 03:16:53;;;;;;;20.30;12.75;;;;;;;;;;5092013;28;20024;-58
2023/08/23 03:19:19;;;;;;;22.60;12.80;;;;;;;;;;5092102;28;20064;-59
2023/08/23 03:21:45;;;;;;;26.88;13.38;;;;;;;;;;5092216;28;20379;-59
2023/08/23 03:24:11;;;;;;;21.48;13.02;;;;;;;;;;5073498;28;20165;-59
2023/08/23 03:26:37;;;;;;;23.88;14.20;;;;;;;;;;5092112;28;20020;-58
2023/08/23 03:29:03;;;;;;;23.17;13.40;;;;;;;;;;5091891;28;20434;-58
2023/08/23 03:31:30;;;;;;;25.88;14.07;;;;;;;;;;5091653;28;20077;-58
2023/08/23 03:33:56;;;;;;;22.83;13.57;;;;;;;;;;5091548;28;20073;-56
2023/08/23 03:36:23;;;;;;;23.73;13.25;;;;;;;;;;5091519;28;20028;-58
2023/08/23 03:38:49;;;;;;;20.20;13.20;;;;;;;;;;5091896;28;20361;-58
2023/08/23 03:41:15;;;;;;;23.38;13.15;;;;;;;;;;5091693;28;20108;-58
2023/08/23 03:43:41;;;;;;;22.33;14.18;;;;;;;;;;5073095;28;20119;-58
2023/08/23 03:46:07;;;;;;;23.88;14.63;;;;;;;;;;5091253;28;20059;-58
2023/08/23 03:48:33;;;;;;;24.10;13.65;;;;;;;;;;5073096;28;20059;-56
2023/08/23 03:51:00;;;;;;;23.67;14.30;;;;;;;;;;5091526;28;20024;-57
2023/08/23 03:53:29;;;;;;;24.35;14.05;;;;;;;;;;5089706;28;20095;-58
2023/08/23 03:55:55;;;;;;;21.85;13.93;;;;;;;;;;5090390;28;20031;-57
2023/08/23 03:58:21;;;;;;;22.08;14.25;;;;;;;;;;5091673;28;20051;-59
2023/08/23 04:00:54;;;;;;;20.92;14.00;;;;;;;;;;5091371;28;20020;-58
2023/08/23 04:03:20;;;;;;;23.50;15.38;;;;;;;;;;5091601;28;20020;-58
2023/08/23 04:05:46;;;;;;;27.77;15.65;;;;;;;;;;5091350;28;20042;-56
2023/08/23 04:08:13;;;;;;;25.63;16.88;;;;;;;;;;5091247;28;20125;-58
2023/08/23 04:10:39;;;;;;;24.52;17.77;;;;;;;;;;5091308;28;20019;-58
2023/08/23 04:13:05;;;;;;;25.77;17.60;;;;;;;;;;5091461;28;20024;-56
2023/08/23 04:15:31;;;;;;;26.15;17.08;;;;;;;;;;5091018;28;20012;-57
2023/08/23 04:17:57;;;;;;;27.85;17.58;;;;;;;;;;5091280;28;20091;-58
2023/08/23 04:20:23;;;;;;;26.42;18.42;;;;;;;;;;5091151;28;20340;-58
2023/08/23 04:22:49;;;;;;;26.92;18.40;;;;;;;;;;5091135;28;20074;-57
2023/08/23 04:25:15;;;;;;;24.80;18.00;;;;;;;;;;5053411;28;20533;-58
2023/08/23 04:27:41;;;;;;;25.15;17.98;;;;;;;;;;5070869;28;20021;-58
2023/08/23 04:30:07;;;;;;;25.80;17.20;;;;;;;;;;5070625;28;20099;-58
2023/08/23 04:32:33;;;;;;;25.65;17.70;;;;;;;;;;5070770;28;20025;-56
2023/08/23 04:34:59;;;;;;;27.42;18.13;;;;;;;;;;5070697;28;20027;-60
2023/08/23 04:37:25;;;;;;;24.30;16.73;;;;;;;;;;5070788;28;20497;-57
2023/08/23 04:39:51;;;;;;;25.85;16.13;;;;;;;;;;5070649;28;20048;-59
2023/08/23 04:42:17;;;;;;;26.85;18.15;;;;;;;;;;5070699;28;20025;-58
2023/08/23 04:44:43;;;;;;;25.65;17.25;;;;;;;;;;5070148;28;20039;-55
2023/08/23 04:47:09;;;;;;;26.20;18.08;;;;;;;;;;5070366;28;20032;-57
2023/08/23 04:49:35;;;;;;;27.77;17.05;;;;;;;;;;5070509;28;20106;-59
2023/08/23 04:52:01;;;;;;;27.60;17.98;;;;;;;;;;5070495;28;20028;-58
2023/08/23 04:54:27;;;;;;;28.38;17.52;;;;;;;;;;5071807;28;20032;-54
2023/08/23 04:56:53;;;;;;;25.75;17.90;;;;;;;;;;5071108;28;20381;-57
2023/08/23 04:59:19;;;;;;;25.90;18.88;;;;;;;;;;5052491;28;20041;-57
2023/08/23 05:01:45;;;;;;;26.77;17.77;;;;;;;;;;5070601;28;20029;-58
2023/08/23 05:04:11;;;;;;;27.98;19.20;;;;;;;;;;5070268;28;20025;-55
2023/08/23 05:06:37;;;;;;;27.50;17.30;;;;;;;;;;5052639;28;20037;-59
2023/08/23 05:09:06;;;;;;;25.17;16.58;;;;;;;;;;5079614;28;20465;-58
2023/08/23 05:11:32;;;;;;;25.70;17.17;;;;;;;;;;5083141;28;20071;-57
2023/08/23 05:13:58;;;;;;;27.65;17.20;;;;;;;;;;5099196;28;20054;-59
2023/08/23 05:16:24;;;;;;;26.85;18.20;;;;;;;;;;5099994;28;20082;-57
2023/08/23 05:18:50;;;;;;;25.00;17.77;;;;;;;;;;5078651;28;20555;-58
2023/08/23 05:21:16;;;;;;;24.60;17.05;;;;;;;;;;5095837;28;20063;-56
2023/08/23 05:23:42;;;;;;;25.40;18.60;;;;;;;;;;5094319;28;20129;-58
2023/08/23 05:26:08;;;;;;;26.33;17.92;;;;;;;;;;5077280;28;20025;-58
2023/08/23 05:28:34;;;;;;;29.75;17.60;;;;;;;;;;5073743;28;20059;-56
2023/08/23 05:31:02;;;;;;;24.90;17.33;;;;;;;;;;5073885;28;20044;-59
2023/08/23 05:33:29;;;;;;;25.40;16.95;;;;;;;;;;5073661;28;20070;-54
2023/08/23 05:35:55;;;;;;;29.67;17.52;;;;;;;;;;5073651;28;20029;-56
2023/08/23 05:38:23;;;;;;;27.48;18.02;;;;;;;;;;5056262;28;20023;-57
2023/08/23 05:40:50;;;;;;;27.50;17.33;;;;;;;;;;5087309;28;20028;-57
2023/08/23 05:43:16;;;;;;;27.20;16.88;;;;;;;;;;5094490;28;20054;-58
2023/08/23 05:45:43;;;;;;;23.92;16.73;;;;;;;;;;5094030;28;20024;-61
2023/08/23 05:48:09;;;;;;;27.23;16.75;;;;;;;;;;5094257;28;20023;-57
2023/08/23 05:50:35;;;;;;;24.67;16.53;;;;;;;;;;5094026;28;20407;-55
2023/08/23 05:53:04;;;;;;;27.27;17.25;;;;;;;;;;5093954;28;20029;-56
2023/08/23 05:55:30;;;;;;;23.13;17.05;;;;;;;;;;5091881;28;20017;-59
2023/08/23 05:57:57;;;;;;;25.83;16.38;;;;;;;;;;5093454;28;20028;-57
2023/08/23 06:00:23;;;;;;;25.52;17.10;;;;;;;;;;5093795;28;20484;-55
2023/08/23 06:02:49;;;;;;;29.02;17.27;;;;;;;;;;5093521;28;20043;-57
2023/08/23 06:05:15;;;;;;;27.48;17.23;;;;;;;;;;5093388;28;20023;-58
2023/08/23 06:07:41;;;;;;;23.40;16.77;;;;;;;;;;5075292;28;20426;-57
2023/08/23 06:10:08;;;;;;;25.63;15.60;;;;;;;;;;5084107;28;20548;-58
2023/08/23 06:12:34;;;;;;;26.65;17.05;;;;;;;;;;5066950;28;20134;-56
2023/08/23 06:15:00;;;;;;;24.38;16.20;;;;;;;;;;5074846;28;20099;-56
2023/08/23 06:17:26;;;;;;;23.20;15.77;;;;;;;;;;5084141;28;20107;-56
2023/08/23 06:19:52;;;;;;;26.30;17.30;;;;;;;;;;5093252;28;20428;-58
2023/08/23 06:22:18;;;;;;;26.73;17.13;;;;;;;;;;5092437;28;20460;-57
2023/08/23 06:24:44;;;;;;;25.77;17.10;;;;;;;;;;5091771;28;20070;-59
2023/08/23 06:27:10;;;;;;;25.77;16.90;;;;;;;;;;5077951;28;20036;-59
2023/08/23 06:29:39;;;;;;;25.65;17.10;;;;;;;;;;5072941;28;20023;-57
2023/08/23 06:32:05;;;;;;;;;;;;;;;;;;5073139;28;20024;-57
2023/08/23 06:34:31;;;;;;;24.98;16.33;;;;;;;;;;5054706;28;20376;-57
2023/08/23 06:36:57;;;;;;;24.80;15.75;;;;;;;;;;5074052;28;20031;-58
2023/08/23 06:39:22;;;;;;;23.98;15.77;;;;;;;;;;5072707;28;20123;-58
2023/08/23 06:41:48;;;;;;;23.40;15.80;;;;;;;;;;5072651;28;20476;-58
2023/08/23 06:44:15;;;;;;;24.95;15.85;;;;;;;;;;5072400;28;20124;-59
2023/08/23 06:46:41;;;;;;;23.95;17.02;;;;;;;;;;5072571;28;20033;-56
2023/08/23 06:49:07;;;;;;;26.35;16.65;;;;;;;;;;5072327;28;20056;-55
2023/08/23 06:51:33;;;;;;;25.80;18.08;;;;;;;;;;5072211;28;20068;-58
2023/08/23 06:53:59;;;;;;;23.17;16.65;;;;;;;;;;5072125;28;20436;-58
2023/08/23 06:56:26;;;;;;;25.40;17.15;;;;;;;;;;5076533;28;20099;-58
2023/08/23 06:58:52;;;;;;;26.92;17.02;;;;;;;;;;5092300;28;20027;-57
2023/08/23 07:01:18;;;;;;;25.63;17.08;;;;;;;;;;5092234;28;20485;-59
2023/08/23 07:03:44;;;;;;;28.23;17.88;;;;;;;;;;5091993;28;20031;-58
2023/08/23 07:06:12;;;;;;;26.40;17.02;;;;;;;;;;5092237;28;20043;-59
2023/08/23 07:08:38;;;;;;;27.00;17.40;;;;;;;;;;5092299;28;20031;-56
2023/08/23 07:11:05;;;;;;;25.70;16.40;;;;;;;;;;5092006;28;20540;-58
2023/08/23 07:13:31;;;;;;;24.13;16.65;;;;;;;;;;5092290;28;20080;-57
2023/08/23 07:15:57;;;;;;;27.00;16.95;;;;;;;;;;5092111;28;20052;-56
2023/08/23 07:18:23;;;;;;;27.42;16.92;;;;;;;;;;5091976;28;20439;-58
2023/08/23 07:20:49;;;;;;;22.30;15.93;;;;;;;;;;5092122;28;20031;-57
2023/08/23 07:23:15;;;;;;;25.88;16.50;;;;;;;;;;5083979;28;20337;-58
2023/08/23 07:25:42;;;;;;;23.92;16.52;;;;;;;;;;5071164;28;20028;-58
2023/08/23 07:28:08;;;;;;;26.45;16.13;;;;;;;;;;5072128;28;20047;-56
2023/08/23 07:30:34;;;;;;;25.35;16.48;;;;;;;;;;5071874;28;20413;-56
2023/08/23 07:33:00;;;;;;;24.08;16.33;;;;;;;;;;5071710;28;20127;-57
2023/08/23 07:35:26;;;;;;;25.20;16.45;;;;;;;;;;5070938;28;20045;-58
2023/08/23 07:37:52;;;;;;;22.75;15.50;;;;;;;;;;5071480;28;20102;-57
2023/08/23 07:40:18;;;;;;;25.60;15.63;;;;;;;;;;5079998;28;20103;-58
2023/08/23 07:42:44;;;;;;;22.73;16.20;;;;;;;;;;5091629;28;20032;-59
2023/08/23 07:45:10;;;;;;;24.23;15.88;;;;;;;;;;5091878;28;20093;-57
2023/08/23 07:47:36;;;;;;;24.80;16.80;;;;;;;;;;5091959;28;20062;-58
2023/08/23 07:50:03;;;;;;;22.45;15.40;;;;;;;;;;5091645;28;20099;-61
2023/08/23 07:52:30;;;;;;;25.63;16.48;;;;;;;;;;5091480;28;20475;-59
2023/08/23 07:54:56;;;;;;;25.48;15.48;;;;;;;;;;5078047;28;20027;-62
2023/08/23 07:57:22;;;;;;;23.98;15.55;;;;;;;;;;5053323;28;20021;-61
2023/08/23 07:59:48;;;;;;;24.20;16.00;;;;;;;;;;5053239;28;20029;-59
2023/08/23 08:02:14;;;;;;;22.95;15.07;;;;;;;;;;5070992;28;20043;-61
2023/08/23 08:04:40;;;;;;;22.50;14.55;;;;;;;;;;5071041;28;20477;-60
2023/08/23 08:07:06;;;;;;;30.42;15.45;;;;;;;;;;5071157;28;20027;-60
2023/08/23 08:09:32;;;;;;;25.75;14.90;;;;;;;;;;5070922;28;20028;-62
2023/08/23 08:11:58;;;;;;;25.60;14.90;;;;;;;;;;5070668;28;20021;-60
2023/08/23 08:14:25;;;;;;;23.73;15.45;;;;;;;;;;5070707;28;20048;-62
2023/08/23 08:16:51;;;;;;;23.50;14.70;;;;;;;;;;5078656;28;20100;-59
2023/08/23 08:19:17;;;;;;;23.80;13.38;;;;;;;;;;5061715;28;20033;-62
2023/08/23 08:21:43;;;;;;;19.20;12.38;;;;;;;;;;5081966;28;20101;-62
2023/08/23 08:24:09;;;;;;;22.20;12.82;;;;;;;;;;5090116;28;20051;-62
2023/08/23 08:26:35;;;;;;;20.60;12.07;;;;;;;;;;5090442;28;20020;-56
2023/08/23 08:29:01;;;;;;;19.70;12.80;;;;;;;;;;5090533;28;20024;-61
2023/08/23 08:31:27;;;;;;;26.67;12.80;;;;;;;;;;5072628;28;20039;-59
2023/08/23 08:33:53;;;;;;;19.70;11.80;;;;;;;;;;5072533;28;20069;-63
2023/08/23 08:36:19;;;;;;;22.27;12.52;;;;;;;;;;5071349;28;20024;-60
2023/08/23 08:38:45;;;;;;;20.40;12.70;;;;;;;;;;5089315;28;20028;-60
2023/08/23 08:41:12;;;;;;;25.30;13.77;;;;;;;;;;5090683;28;20039;-59
2023/08/23 08:43:38;;;;;;;25.02;14.07;;;;;;;;;;5091191;28;20040;-60
2023/08/23 08:46:07;;;;;;;22.20;12.98;;;;;;;;;;5089812;28;20024;-59
2023/08/23 08:48:33;;;;;;;24.55;12.23;;;;;;;;;;5091274;28;20059;-60
2023/08/23 08:51:00;;;;;;;22.17;11.95;;;;;;;;;;5091591;28;20024;-60
2023/08/23 08:53:27;;;;;;;22.67;12.00;;;;;;;;;;5088294;28;20046;-60
2023/08/23 08:55:53;;;;;;;19.45;11.70;;;;;;;;;;5070396;28;20032;-61
2023/08/23 08:58:22;;;;;;;22.58;11.60;;;;;;;;;;5070501;28;20028;-59
2023/08/23 09:00:47;;;;;;;;;;;;;;;;;;5070987;28;20443;-61
2023/08/23 09:03:13;;;;;;;19.48;11.95;;;;;;;;;;5070238;28;19912;-61
2023/08/23 09:05:40;;;;;;;20.40;11.75;;;;;;;;;;5070450;28;20025;-57
2023/08/23 09:08:06;;;;;;;20.05;11.77;;;;;;;;;;5070671;28;20077;-59
2023/08/23 09:10:32;;;;;;;21.35;11.85;;;;;;;;;;5070695;28;20109;-61
2023/08/23 09:12:58;;;;;;;19.88;12.02;;;;;;;;;;5070414;28;20528;-61
2023/08/23 09:15:24;;;;;;;22.20;12.52;;;;;;;;;;5070009;28;20024;-60
2023/08/23 09:17:53;;;;;;;23.77;12.80;;;;;;;;;;5081871;28;20442;-62
2023/08/23 09:20:20;;;;;;;19.30;12.55;;;;;;;;;;5090483;28;20020;-58
2023/08/23 09:22:51;;;;;;;19.67;12.40;;;;;;;;;;5090612;28;20032;-60
2023/08/23 09:25:16;;;;;;;19.15;11.20;;;;;;;;;;5090408;28;20341;-60
2023/08/23 09:27:42;;;;;;;20.92;12.13;;;;;;;;;;5090378;28;20202;-59
2023/08/23 09:30:09;;;;;;;21.00;13.15;;;;;;;;;;5090234;28;20024;-60
2023/08/23 09:32:35;;;;;;;24.13;13.18;;;;;;;;;;5090345;28;20146;-59
2023/08/23 09:35:11;;;;;;;21.17;12.25;;;;;;;;;;5090507;28;20476;-60
2023/08/23 09:37:39;;;;;;;17.73;12.07;;;;;;;;;;5090338;28;20150;-61
2023/08/23 09:40:05;;;;;;;20.75;13.70;;;;;;;;;;5072134;28;20016;-60
2023/08/23 09:42:32;;;;;;;19.30;12.40;;;;;;;;;;5089981;28;20484;-60
2023/08/23 09:44:59;;;;;;;18.35;12.07;;;;;;;;;;5089850;28;20031;-60
2023/08/23 09:47:29;;;;;;;17.63;11.90;;;;;;;;;;5090201;28;20032;-60
2023/08/23 09:49:56;;;;;;;19.30;12.35;;;;;;;;;;5090006;28;20451;-55
2023/08/23 09:52:24;;;;;;;17.87;11.97;;;;;;;;;;5095210;28;20020;-53
2023/08/23 09:54:50;;;;;;;19.92;12.80;;;;;;;;;;5094554;28;20089;-54
2023/08/23 09:57:18;;;;;;;18.58;12.20;;;;;;;;;;5075215;28;20479;-55
2023/08/23 09:59:45;;;;;;;18.65;12.77;;;;;;;;;;5090000;28;20047;-54
2023/08/23 10:02:11;;;;;;;20.80;13.30;;;;;;;;;;5073701;28;20033;-53
2023/08/23 10:04:40;;;;;;;18.95;12.27;;;;;;;;;;5076550;28;20522;-56
2023/08/23 10:07:08;;;;;;;18.60;12.48;;;;;;;;;;5068325;28;20166;-57
2023/08/23 10:09:34;;;;;;;;;;;;;;;;;;5083084;28;20177;-53
2023/08/23 10:12:01;;;;;;;18.05;11.40;;;;;;;;;;5084651;28;19999;-57
2023/08/23 10:14:28;;;;;;;18.50;11.45;;;;;;;;;;5081901;28;20028;-54
2023/08/23 10:16:55;;;;;;;19.85;12.32;;;;;;;;;;5083922;28;20391;-56
2023/08/23 10:19:21;;;;;;;18.50;12.23;;;;;;;;;;5082956;28;20457;-54
2023/08/23 10:21:47;;;;;;;18.67;11.90;;;;;;;;;;5089123;28;20028;-54
2023/08/23 10:24:13;;;;;;;18.38;11.15;;;;;;;;;;5084783;28;20040;-57
2023/08/23 10:26:46;;;;;;;17.05;11.18;;;;;;;;;;5089720;28;20387;-56
2023/08/23 10:29:12;;;;;;;17.63;11.30;;;;;;;;;;5089206;28;20036;-55
2023/08/23 10:31:51;;;;;;;17.35;11.85;;;;;;;;;;5088598;28;20035;-55
2023/08/23 10:34:16;;;;;;;;;;;;;;;;;;5089293;28;20035;-56
2023/08/23 10:36:42;;;;;;;19.60;12.50;;;;;;;;;;5085768;28;20446;-57
2023/08/23 10:39:10;;;;;;;16.50;11.23;;;;;;;;;;5086577;28;20023;-56
2023/08/23 10:41:36;;;;;;;17.33;11.32;;;;;;;;;;5066457;28;20066;-58
2023/08/23 10:44:02;;;;;;;16.77;11.02;;;;;;;;;;5082801;28;20024;-57
2023/08/23 10:46:30;;;;;;;18.27;11.95;;;;;;;;;;5087915;28;20039;-58
2023/08/23 10:48:57;;;;;;;18.63;11.15;;;;;;;;;;5064819;28;20027;-59
2023/08/23 10:51:23;;;;;;;19.00;11.65;;;;;;;;;;5083060;28;20492;-59
2023/08/23 10:53:49;;;;;;;15.63;11.00;;;;;;;;;;5083236;28;20028;-60
2023/08/23 10:56:15;;;;;;;18.65;11.88;;;;;;;;;;5083219;28;20032;-56
2023/08/23 10:58:45;;;;;;;17.00;11.18;;;;;;;;;;5083090;28;20035;-58
2023/08/23 11:01:11;;;;;;;15.80;11.43;;;;;;;;;;5064531;28;20020;-59
2023/08/23 11:03:37;;;;;;;15.88;11.68;;;;;;;;;;5080717;28;20366;-59
2023/08/23 11:06:03;;;;;;;16.30;11.80;;;;;;;;;;5082070;28;20079;-59
2023/08/23 11:08:30;;;;;;;17.02;10.90;;;;;;;;;;5081725;28;20024;-59
2023/08/23 11:10:56;;;;;;;17.20;11.85;;;;;;;;;;5080243;28;20322;-56
2023/08/23 11:13:22;;;;;;;17.20;12.50;;;;;;;;;;5071559;28;20020;-58
2023/08/23 11:15:48;;;;;;;17.52;12.82;;;;;;;;;;5091936;28;20704;-60
2023/08/23 11:18:14;;;;;;;16.98;12.70;;;;;;;;;;5092133;28;20025;-60
2023/08/23 11:20:41;;;;;;;18.73;12.40;;;;;;;;;;5092200;28;20012;-58
2023/08/23 11:23:07;;;;;;;17.63;13.05;;;;;;;;;;5092276;28;20027;-57
2023/08/23 11:25:33;;;;;;;18.65;12.93;;;;;;;;;;5092132;28;20487;-57
2023/08/23 11:27:59;;;;;;;17.83;13.10;;;;;;;;;;5092292;28;20035;-57
2023/08/23 11:30:26;;;;;;;17.30;13.68;;;;;;;;;;5073823;28;20054;-56
2023/08/23 11:32:52;;;;;;;18.83;14.23;;;;;;;;;;5092155;28;20491;-57
2023/08/23 11:35:19;;;;;;;17.88;13.32;;;;;;;;;;5090593;28;20257;-56
2023/08/23 11:37:49;;;;;;;18.05;13.05;;;;;;;;;;5074004;28;20471;-58
2023/08/23 11:40:15;;;;;;;17.65;13.35;;;;;;;;;;5091170;28;20042;-59
2023/08/23 11:42:41;;;;;;;17.92;13.57;;;;;;;;;;5084621;28;20020;-57
2023/08/23 11:45:07;;;;;;;16.83;13.30;;;;;;;;;;5084493;28;20031;-60
2023/08/23 11:47:36;;;;;;;17.95;14.32;;;;;;;;;;5074081;28;20111;-58
2023/08/23 11:50:07;;;;;;;17.73;13.48;;;;;;;;;;5091122;28;20085;-59
2023/08/23 11:52:33;;;;;;;16.73;13.50;;;;;;;;;;5088413;28;20085;-57
2023/08/23 11:55:01;;;;;;;17.48;13.85;;;;;;;;;;5090743;28;20464;-57
2023/08/23 11:57:27;;;;;;;16.15;13.00;;;;;;;;;;5091350;28;20487;-58
2023/08/23 11:59:53;;;;;;;17.08;13.98;;;;;;;;;;5091133;28;20036;-59
2023/08/23 12:02:19;;;;;;;18.40;13.77;;;;;;;;;;5091585;28;20020;-57
2023/08/23 12:04:45;;;;;;;17.23;13.68;;;;;;;;;;5087104;28;20476;-59
2023/08/23 12:07:13;;;;;;;18.63;13.43;;;;;;;;;;5090965;28;20529;-59
2023/08/23 12:09:39;;;;;;;17.95;13.82;;;;;;;;;;5091000;28;20016;-56
2023/08/23 12:12:06;;;;;;;17.67;14.23;;;;;;;;;;5090017;28;20028;-58
2023/08/23 12:14:32;;;;;;;16.63;13.68;;;;;;;;;;5090222;28;20027;-60
2023/08/23 12:16:58;;;;;;;17.15;14.10;;;;;;;;;;5091127;28;20047;-59
2023/08/23 12:19:24;;;;;;;17.13;13.77;;;;;;;;;;5091497;28;20020;-59
2023/08/23 12:21:50;;;;;;;17.33;13.30;;;;;;;;;;5090065;28;20024;-60
2023/08/23 12:24:17;;;;;;;16.05;13.32;;;;;;;;;;5090359;28;20373;-59
2023/08/23 12:26:43;;;;;;;16.92;13.60;;;;;;;;;;5090709;28;20490;-60
2023/08/23 12:29:09;;;;;;;17.10;13.10;;;;;;;;;;5090980;28;20028;-60
2023/08/23 12:31:35;;;;;;;17.92;13.50;;;;;;;;;;5089247;28;20037;-59
2023/08/23 12:34:02;;;;;;;16.20;13.00;;;;;;;;;;5081543;28;20040;-60
2023/08/23 12:36:28;;;;;;;17.00;13.40;;;;;;;;;;5065528;28;20093;-58
2023/08/23 12:38:54;;;;;;;15.93;12.95;;;;;;;;;;5090721;28;20032;-60
2023/08/23 12:41:20;;;;;;;18.25;13.60;;;;;;;;;;5063935;28;20021;-57
2023/08/23 12:43:46;;;;;;;17.23;13.07;;;;;;;;;;5070629;28;20469;-58
2023/08/23 12:46:12;;;;;;;17.05;13.00;;;;;;;;;;5069765;28;20024;-58
2023/08/23 12:48:38;;;;;;;17.05;13.13;;;;;;;;;;5070664;28;20719;-58
2023/08/23 12:51:04;;;;;;;16.95;13.50;;;;;;;;;;5070820;28;20350;-58
2023/08/23 12:53:30;;;;;;;16.77;13.00;;;;;;;;;;5070594;28;20104;-59
2023/08/23 12:55:56;;;;;;;16.63;13.50;;;;;;;;;;5073517;28;20108;-58
2023/08/23 12:58:22;;;;;;;17.73;13.38;;;;;;;;;;5071858;28;20039;-60
2023/08/23 13:00:48;;;;;;;16.75;13.20;;;;;;;;;;5090396;28;20028;-60
2023/08/23 13:03:14;;;;;;;17.55;13.90;;;;;;;;;;5083080;28;20060;-58
2023/08/23 13:05:40;;;;;;;16.15;13.00;;;;;;;;;;5069635;28;20045;-59
2023/08/23 13:08:07;;;;;;;17.88;13.38;;;;;;;;;;5069226;28;20519;-59
2023/08/23 13:10:33;;;;;;;19.30;13.93;;;;;;;;;;5068906;28;20357;-60
2023/08/23 13:12:59;;;;;;;17.13;13.50;;;;;;;;;;5073039;28;20465;-58
2023/08/23 13:15:25;;;;;;;16.48;13.60;;;;;;;;;;5077255;28;20023;-58
2023/08/23 13:17:57;;;;;;;16.05;13.57;;;;;;;;;;5075059;28;20017;-59
2023/08/23 13:20:23;;;;;;;17.17;13.40;;;;;;;;;;5051958;28;20047;-58
2023/08/23 13:22:49;;;;;;;16.55;12.98;;;;;;;;;;5071828;28;20024;-57
2023/08/23 13:25:15;;;;;;;16.58;13.80;;;;;;;;;;5089461;28;20032;-58
2023/08/23 13:27:41;;;;;;;16.35;13.50;;;;;;;;;;5090105;28;20042;-58
2023/08/23 13:30:08;;;;;;;16.73;13.70;;;;;;;;;;5089896;28;20375;-59
2023/08/23 13:32:35;;;;;;;16.80;13.75;;;;;;;;;;5091493;28;20016;-63
2023/08/23 13:35:01;;;;;;;19.40;14.20;;;;;;;;;;5093511;28;20020;-58
2023/08/23 13:37:26;;;;;;;19.77;13.57;;;;;;;;;;5094234;28;20020;-58
2023/08/23 13:39:52;;;;;;;16.90;13.27;;;;;;;;;;5089918;28;20413;-56
2023/08/23 13:42:19;;;;;;;17.55;13.65;;;;;;;;;;5087980;28;20050;-56
2023/08/23 13:44:45;;;;;;;16.35;13.77;;;;;;;;;;5084224;28;20036;-57
2023/08/23 13:47:11;;;;;;;16.00;13.60;;;;;;;;;;4731907;28;10000205;-55
2023/08/23 13:49:37;;;;;;;16.58;13.93;;;;;;;;;;5060550;28;20361;-55
2023/08/23 13:52:03;;;;;;;16.30;14.13;;;;;;;;;;5081160;28;20048;-57
2023/08/23 13:54:29;;;;;;;16.15;13.73;;;;;;;;;;5079952;28;20111;-56
2023/08/23 13:56:55;;;;;;;16.90;13.70;;;;;;;;;;5079033;28;20693;-57
2023/08/23 13:59:21;;;;;;;16.10;13.93;;;;;;;;;;5081124;28;20024;-54
2023/08/23 14:01:47;;;;;;;17.65;14.40;;;;;;;;;;5081046;28;20094;-58
2023/08/23 14:04:13;;;;;;;16.40;13.75;;;;;;;;;;5081192;28;20027;-54
2023/08/23 14:06:39;;;;;;;16.73;14.15;;;;;;;;;;5082292;28;20076;-54
2023/08/23 14:09:05;;;;;;;16.55;14.50;;;;;;;;;;5083835;28;20344;-57
2023/08/23 14:11:36;;;;;;;18.00;13.70;;;;;;;;;;5062638;28;20696;-56
2023/08/23 14:14:02;;;;;;;16.70;13.82;;;;;;;;;;5070102;28;20020;-57